createdAt,value
2023-04-27T00:02:41.123Z,7.76
2023-04-27T00:12:44.349Z,7.59
2023-04-27T00:22:41.358Z,7.59
2023-04-27T00:32:41.710Z,7.76
2023-04-27T00:42:41.692Z,7.42
2023-04-27T00:52:42.175Z,7.59
2023-04-27T01:02:42.304Z,7.24
2023-04-27T01:12:42.402Z,7.42
2023-04-27T01:22:42.595Z,7.42
2023-04-27T01:32:42.899Z,7.59
2023-04-27T01:42:42.882Z,7.42
2023-04-27T01:52:43.139Z,7.59
2023-04-27T02:02:43.447Z,7.93
2023-04-27T02:12:43.506Z,8.10
2023-04-27T02:22:43.723Z,8.27
2023-04-27T02:32:44.101Z,7.12
2023-04-27T02:42:44.091Z,6.95
2023-04-27T02:52:44.344Z,6.95
2023-04-27T03:02:44.735Z,7.28
2023-04-27T03:12:44.823Z,7.77
2023-04-27T03:22:44.823Z,7.45
2023-04-27T03:32:47.500Z,7.61
2023-04-27T03:42:45.113Z,7.61
2023-04-27T03:52:48.432Z,7.45
2023-04-27T04:02:45.639Z,7.61
2023-04-27T04:12:45.734Z,7.61
2023-04-27T04:22:45.979Z,7.61
2023-04-27T04:32:49.411Z,7.61
2023-04-27T04:42:46.370Z,7.45
2023-04-27T04:52:46.577Z,7.45
2023-04-27T05:02:46.896Z,7.45
2023-04-27T05:12:47.258Z,7.45
2023-04-27T05:22:47.065Z,7.61
2023-04-27T05:32:47.342Z,7.45
2023-04-27T05:42:47.524Z,7.61
2023-04-27T05:52:49.732Z,7.45
2023-04-27T06:02:48.020Z,7.61
2023-04-27T06:12:48.067Z,8.43
2023-04-27T06:22:48.264Z,8.27
2023-04-27T06:32:48.803Z,8.27
2023-04-27T06:42:48.554Z,9.63
2023-04-27T06:52:48.818Z,7.86
2023-04-27T07:02:49.051Z,8.57
2023-04-27T07:12:49.283Z,8.57
2023-04-27T07:22:49.474Z,8.22
2023-04-27T07:32:49.751Z,8.22
2023-04-27T07:42:49.937Z,8.40
2023-04-27T07:52:53.296Z,9.55
2023-04-27T08:02:50.530Z,8.47
2023-04-27T08:12:50.483Z,7.90
2023-04-27T08:22:50.680Z,8.09
2023-04-27T08:32:50.993Z,10.03
2023-04-27T08:42:50.964Z,9.36
2023-04-27T08:52:51.225Z,8.70
2023-04-27T09:02:51.619Z,8.92
2023-04-27T09:12:51.689Z,7.52
2023-04-27T09:22:51.695Z,9.44
2023-04-27T09:32:53.949Z,10.60
2023-04-27T09:42:52.119Z,9.65
2023-04-27T09:52:52.442Z,9.14
2023-04-27T10:02:53.854Z,9.57
2023-04-27T10:12:52.617Z,9.99
2023-04-27T10:22:52.804Z,9.42
2023-04-27T10:32:53.399Z,10.09
2023-04-27T10:42:53.222Z,10.14
2023-04-27T10:52:53.454Z,8.48
2023-04-27T11:02:53.926Z,9.42
2023-04-27T11:12:53.832Z,9.17
2023-04-27T11:22:54.045Z,9.66
2023-04-27T11:32:54.326Z,10.37
2023-04-27T11:42:54.516Z,10.61
2023-04-27T11:52:54.868Z,9.66
2023-04-27T12:02:55.094Z,10.11
2023-04-27T12:12:55.045Z,10.55
2023-04-27T12:22:55.053Z,10.28
2023-04-27T12:32:55.343Z,9.20
2023-04-27T12:42:55.513Z,10.12
2023-04-27T12:52:55.768Z,10.12
2023-04-27T13:02:56.062Z,9.26
2023-04-27T13:12:56.134Z,10.12
2023-04-27T13:22:56.129Z,10.47
2023-04-27T13:33:07.187Z,9.26
2023-04-27T13:42:57.483Z,10.18
2023-04-27T13:52:56.788Z,10.18
2023-04-27T14:02:57.025Z,10.18
2023-04-27T14:12:56.951Z,10.18
2023-04-27T14:22:58.505Z,9.25
2023-04-27T14:32:57.133Z,9.57
2023-04-27T14:42:57.207Z,9.57
2023-04-27T14:52:58.535Z,9.87
2023-04-27T15:02:57.639Z,8.93
2023-04-27T15:12:57.782Z,9.57
2023-04-27T15:22:57.797Z,9.25
2023-04-27T15:32:58.134Z,9.57
2023-04-27T15:42:58.092Z,10.18
2023-04-27T15:52:58.296Z,9.26
2023-04-27T16:02:58.661Z,9.26
2023-04-27T16:12:58.652Z,9.55
2023-04-27T16:22:58.922Z,8.92
2023-04-27T16:32:59.168Z,9.09
2023-04-27T16:42:59.158Z,8.55
2023-04-27T16:53:01.486Z,8.41
2023-04-27T17:02:59.610Z,8.67
2023-04-27T17:13:02.843Z,8.67
2023-04-27T17:22:59.854Z,8.15
2023-04-27T17:33:00.176Z,9.17
2023-04-27T17:43:00.354Z,8.23
2023-04-27T17:53:00.527Z,8.72
2023-04-27T18:03:00.737Z,8.72
2023-04-27T18:13:00.767Z,8.01
2023-04-27T18:23:00.984Z,8.01
2023-04-27T18:33:01.016Z,7.77
2023-04-27T18:43:00.984Z,7.29
2023-04-27T18:53:01.249Z,7.77
2023-04-27T19:03:01.658Z,8.01
2023-04-27T19:13:01.579Z,7.29
2023-04-27T19:23:01.897Z,7.52
2023-04-27T19:33:01.935Z,7.52
2023-04-27T19:43:01.902Z,7.29
2023-04-27T19:53:02.402Z,7.06
2023-04-27T20:03:02.415Z,7.06
2023-04-27T20:13:02.591Z,7.06
2023-04-27T20:23:02.592Z,7.06
2023-04-27T20:33:02.971Z,7.06
2023-04-27T20:43:02.976Z,7.29
2023-04-27T20:53:03.228Z,7.52
2023-04-27T21:03:03.595Z,7.96
2023-04-27T21:13:03.737Z,7.44
2023-04-27T21:23:03.723Z,7.65
2023-04-27T21:33:04.062Z,8.07
2023-04-27T21:43:04.072Z,7.31
2023-04-27T21:53:04.336Z,7.86
2023-04-27T22:03:04.606Z,7.44
2023-04-27T22:13:17.557Z,7.23
2023-04-27T22:23:05.792Z,7.44
2023-04-27T22:33:05.133Z,7.65
2023-04-27T22:43:05.167Z,7.44
2023-04-27T22:53:05.498Z,7.44
2023-04-27T23:03:05.640Z,7.44
2023-04-27T23:13:05.752Z,7.23
2023-04-27T23:23:05.808Z,7.01
2023-04-27T23:33:06.163Z,7.01
2023-04-27T23:43:06.185Z,7.23
2023-04-27T23:53:06.451Z,7.44
